sensor_id;sensor_type;location;lat;lon;timestamp;pressure;altitude;pressure_sealevel;temperature;humidity
75036;BME280;64247;51.540;5.854;2023-05-25T00:00:00;71600.94;;;-147.87;100.00
75036;BME280;64247;51.540;5.854;2023-05-25T00:02:02;71600.94;;;-147.87;100.00
75036;BME280;64247;51.540;5.854;2023-05-25T00:04:06;71600.94;;;-147.87;100.00
75036;BME280;64247;51.540;5.854;2023-05-25T00:06:09;71600.94;;;-147.87;100.00
75036;BME280;64247;51.540;5.854;2023-05-25T00:08:10;71600.94;;;-147.87;100.00
75036;BME280;64247;51.540;5.854;2023-05-25T00:10:11;71600.94;;;-147.87;100.00
75036;BME280;64247;51.540;5.854;2023-05-25T00:12:13;71600.94;;;-147.87;100.00
75036;BME280;64247;51.540;5.854;2023-05-25T00:14:14;71600.94;;;-147.87;100.00
75036;BME280;64247;51.540;5.854;2023-05-25T00:16:15;71600.94;;;-147.87;100.00
75036;BME280;64247;51.540;5.854;2023-05-25T00:18:16;71600.94;;;-147.87;100.00
75036;BME280;64247;51.540;5.854;2023-05-25T00:20:17;71600.94;;;-147.87;100.00
75036;BME280;64247;51.540;5.854;2023-05-25T00:22:18;71600.94;;;-147.87;100.00
75036;BME280;64247;51.540;5.854;2023-05-25T00:24:19;71600.94;;;-147.87;100.00
75036;BME280;64247;51.540;5.854;2023-05-25T00:26:20;71600.94;;;-147.87;100.00
75036;BME280;64247;51.540;5.854;2023-05-25T00:28:21;71600.94;;;-147.87;100.00
75036;BME280;64247;51.540;5.854;2023-05-25T00:30:22;71600.94;;;-147.87;100.00
75036;BME280;64247;51.540;5.854;2023-05-25T00:32:23;71600.94;;;-147.87;100.00
75036;BME280;64247;51.540;5.854;2023-05-25T00:34:23;71600.94;;;-147.87;100.00
75036;BME280;64247;51.540;5.854;2023-05-25T00:36:24;71600.94;;;-147.87;100.00
75036;BME280;64247;51.540;5.854;2023-05-25T00:38:25;71600.94;;;-147.87;100.00
75036;BME280;64247;51.540;5.854;2023-05-25T00:40:26;71600.94;;;-147.87;100.00
75036;BME280;64247;51.540;5.854;2023-05-25T00:42:28;71600.94;;;-147.87;100.00
75036;BME280;64247;51.540;5.854;2023-05-25T00:44:29;71600.94;;;-147.87;100.00
75036;BME280;64247;51.540;5.854;2023-05-25T00:46:33;71600.94;;;-147.87;100.00
75036;BME280;64247;51.540;5.854;2023-05-25T00:48:33;71600.94;;;-147.87;100.00
75036;BME280;64247;51.540;5.854;2023-05-25T00:50:41;71600.94;;;-147.87;100.00
75036;BME280;64247;51.540;5.854;2023-05-25T00:52:43;71600.94;;;-147.87;100.00
75036;BME280;64247;51.540;5.854;2023-05-25T00:54:47;71600.94;;;-147.87;100.00
75036;BME280;64247;51.540;5.854;2023-05-25T00:57:01;71600.94;;;-147.87;100.00
75036;BME280;64247;51.540;5.854;2023-05-25T00:59:05;71600.94;;;-147.87;100.00
75036;BME280;64247;51.540;5.854;2023-05-25T01:01:10;71600.94;;;-147.87;100.00
75036;BME280;64247;51.540;5.854;2023-05-25T01:03:14;71600.94;;;-147.87;100.00
75036;BME280;64247;51.540;5.854;2023-05-25T01:05:18;71600.94;;;-147.87;100.00
75036;BME280;64247;51.540;5.854;2023-05-25T01:07:22;71600.94;;;-147.87;100.00
75036;BME280;64247;51.540;5.854;2023-05-25T01:09:26;71600.94;;;-147.87;100.00
75036;BME280;64247;51.540;5.854;2023-05-25T01:11:32;71600.94;;;-147.87;100.00
75036;BME280;64247;51.540;5.854;2023-05-25T01:13:34;71600.94;;;-147.87;100.00
75036;BME280;64247;51.540;5.854;2023-05-25T01:15:37;71600.94;;;-147.87;100.00
75036;BME280;64247;51.540;5.854;2023-05-25T01:17:39;71600.94;;;-147.87;100.00
75036;BME280;64247;51.540;5.854;2023-05-25T01:19:40;71600.94;;;-147.87;100.00
75036;BME280;64247;51.540;5.854;2023-05-25T01:21:54;71600.94;;;-147.87;100.00
75036;BME280;64247;51.540;5.854;2023-05-25T01:24:20;71600.94;;;-147.87;100.00
75036;BME280;64247;51.540;5.854;2023-05-25T01:26:25;71600.94;;;-147.87;100.00
75036;BME280;64247;51.540;5.854;2023-05-25T01:28:34;71600.94;;;-147.87;100.00
75036;BME280;64247;51.540;5.854;2023-05-25T01:30:41;71600.94;;;-147.87;100.00
75036;BME280;64247;51.540;5.854;2023-05-25T01:32:44;71600.94;;;-147.87;100.00
75036;BME280;64247;51.540;5.854;2023-05-25T01:34:45;71600.94;;;-147.87;100.00
75036;BME280;64247;51.540;5.854;2023-05-25T01:36:48;71600.94;;;-147.87;100.00
75036;BME280;64247;51.540;5.854;2023-05-25T01:38:49;71600.94;;;-147.87;100.00
75036;BME280;64247;51.540;5.854;2023-05-25T01:40:50;71600.94;;;-147.87;100.00
75036;BME280;64247;51.540;5.854;2023-05-25T01:42:51;71600.94;;;-147.87;100.00
75036;BME280;64247;51.540;5.854;2023-05-25T01:44:52;71600.94;;;-147.87;100.00
75036;BME280;64247;51.540;5.854;2023-05-25T01:47:00;71600.94;;;-147.87;100.00
75036;BME280;64247;51.540;5.854;2023-05-25T01:52:14;71600.94;;;-147.87;100.00
75036;BME280;64247;51.540;5.854;2023-05-25T01:54:20;71600.94;;;-147.87;100.00
75036;BME280;64247;51.540;5.854;2023-05-25T01:56:24;71600.94;;;-147.87;100.00
75036;BME280;64247;51.540;5.854;2023-05-25T01:58:32;71600.94;;;-147.87;100.00
75036;BME280;64247;51.540;5.854;2023-05-25T02:00:35;71600.94;;;-147.87;100.00
75036;BME280;64247;51.540;5.854;2023-05-25T02:02:37;71600.94;;;-147.87;100.00
75036;BME280;64247;51.540;5.854;2023-05-25T02:04:41;71600.94;;;-147.87;100.00
75036;BME280;64247;51.540;5.854;2023-05-25T02:06:47;71600.94;;;-147.87;100.00
75036;BME280;64247;51.540;5.854;2023-05-25T02:08:48;71600.94;;;-147.87;100.00
75036;BME280;64247;51.540;5.854;2023-05-25T02:10:48;71600.94;;;-147.87;100.00
75036;BME280;64247;51.540;5.854;2023-05-25T02:12:49;71600.94;;;-147.87;100.00
75036;BME280;64247;51.540;5.854;2023-05-25T02:14:51;71600.94;;;-147.87;100.00
75036;BME280;64247;51.540;5.854;2023-05-25T02:16:52;71600.94;;;-147.87;100.00
75036;BME280;64247;51.540;5.854;2023-05-25T02:18:53;71600.94;;;-147.87;100.00
75036;BME280;64247;51.540;5.854;2023-05-25T02:20:56;71600.94;;;-147.87;100.00
75036;BME280;64247;51.540;5.854;2023-05-25T02:22:58;71600.94;;;-147.87;100.00
75036;BME280;64247;51.540;5.854;2023-05-25T02:25:00;71600.94;;;-147.87;100.00
75036;BME280;64247;51.540;5.854;2023-05-25T02:27:05;71600.94;;;-147.87;100.00
75036;BME280;64247;51.540;5.854;2023-05-25T02:29:06;71600.94;;;-147.87;100.00
75036;BME280;64247;51.540;5.854;2023-05-25T02:31:06;71600.94;;;-147.87;100.00
75036;BME280;64247;51.540;5.854;2023-05-25T02:33:07;71600.94;;;-147.87;100.00
75036;BME280;64247;51.540;5.854;2023-05-25T02:35:09;71600.94;;;-147.87;100.00
75036;BME280;64247;51.540;5.854;2023-05-25T02:37:10;71600.94;;;-147.87;100.00
75036;BME280;64247;51.540;5.854;2023-05-25T02:39:11;71600.94;;;-147.87;100.00
75036;BME280;64247;51.540;5.854;2023-05-25T02:41:12;71600.94;;;-147.87;100.00
75036;BME280;64247;51.540;5.854;2023-05-25T02:43:13;71600.94;;;-147.87;100.00
75036;BME280;64247;51.540;5.854;2023-05-25T02:45:14;71600.94;;;-147.87;100.00
75036;BME280;64247;51.540;5.854;2023-05-25T02:47:15;71600.94;;;-147.87;100.00
75036;BME280;64247;51.540;5.854;2023-05-25T02:49:17;71600.94;;;-147.87;100.00
75036;BME280;64247;51.540;5.854;2023-05-25T02:51:18;71600.94;;;-147.87;100.00
75036;BME280;64247;51.540;5.854;2023-05-25T02:53:19;71600.94;;;-147.87;100.00
75036;BME280;64247;51.540;5.854;2023-05-25T02:55:21;71600.94;;;-147.87;100.00
75036;BME280;64247;51.540;5.854;2023-05-25T02:57:22;71600.94;;;-147.87;100.00
75036;BME280;64247;51.540;5.854;2023-05-25T02:59:23;71600.94;;;-147.87;100.00
75036;BME280;64247;51.540;5.854;2023-05-25T03:01:24;71600.94;;;-147.87;100.00
75036;BME280;64247;51.540;5.854;2023-05-25T03:03:30;71600.94;;;-147.87;100.00
75036;BME280;64247;51.540;5.854;2023-05-25T03:05:31;71600.94;;;-147.87;100.00
75036;BME280;64247;51.540;5.854;2023-05-25T03:07:34;71600.94;;;-147.87;100.00
75036;BME280;64247;51.540;5.854;2023-05-25T03:09:35;71600.94;;;-147.87;100.00
75036;BME280;64247;51.540;5.854;2023-05-25T03:11:37;71600.94;;;-147.87;100.00
75036;BME280;64247;51.540;5.854;2023-05-25T03:13:38;71600.94;;;-147.87;100.00
75036;BME280;64247;51.540;5.854;2023-05-25T03:15:39;71600.94;;;-147.87;100.00
75036;BME280;64247;51.540;5.854;2023-05-25T03:17:40;71600.94;;;-147.87;100.00
75036;BME280;64247;51.540;5.854;2023-05-25T03:19:40;71600.94;;;-147.87;100.00
75036;BME280;64247;51.540;5.854;2023-05-25T03:21:43;71600.94;;;-147.87;100.00
75036;BME280;64247;51.540;5.854;2023-05-25T03:23:44;71600.94;;;-147.87;100.00
75036;BME280;64247;51.540;5.854;2023-05-25T03:25:45;71600.94;;;-147.87;100.00
75036;BME280;64247;51.540;5.854;2023-05-25T03:27:46;71600.94;;;-147.87;100.00
75036;BME280;64247;51.540;5.854;2023-05-25T03:29:49;71600.94;;;-147.87;100.00
75036;BME280;64247;51.540;5.854;2023-05-25T03:31:50;71600.94;;;-147.87;100.00
75036;BME280;64247;51.540;5.854;2023-05-25T03:33:52;71600.94;;;-147.87;100.00
75036;BME280;64247;51.540;5.854;2023-05-25T03:35:55;71600.94;;;-147.87;100.00
75036;BME280;64247;51.540;5.854;2023-05-25T03:37:57;71600.94;;;-147.87;100.00
75036;BME280;64247;51.540;5.854;2023-05-25T03:39:57;71600.94;;;-147.87;100.00
75036;BME280;64247;51.540;5.854;2023-05-25T03:41:58;71600.94;;;-147.87;100.00
75036;BME280;64247;51.540;5.854;2023-05-25T03:43:59;71600.94;;;-147.87;100.00
75036;BME280;64247;51.540;5.854;2023-05-25T03:46:00;71600.94;;;-147.87;100.00
75036;BME280;64247;51.540;5.854;2023-05-25T03:48:00;71600.94;;;-147.87;100.00
75036;BME280;64247;51.540;5.854;2023-05-25T03:50:04;71600.94;;;-147.87;100.00
75036;BME280;64247;51.540;5.854;2023-05-25T03:52:06;71600.94;;;-147.87;100.00
75036;BME280;64247;51.540;5.854;2023-05-25T03:54:07;71600.94;;;-147.87;100.00
75036;BME280;64247;51.540;5.854;2023-05-25T03:56:08;71600.94;;;-147.87;100.00
75036;BME280;64247;51.540;5.854;2023-05-25T03:58:11;71600.94;;;-147.87;100.00
75036;BME280;64247;51.540;5.854;2023-05-25T04:00:13;71600.94;;;-147.87;100.00
75036;BME280;64247;51.540;5.854;2023-05-25T04:02:14;71600.94;;;-147.87;100.00
75036;BME280;64247;51.540;5.854;2023-05-25T04:04:14;71600.94;;;-147.87;100.00
75036;BME280;64247;51.540;5.854;2023-05-25T04:06:16;71600.94;;;-147.87;100.00
75036;BME280;64247;51.540;5.854;2023-05-25T04:08:18;71600.94;;;-147.87;100.00
75036;BME280;64247;51.540;5.854;2023-05-25T04:10:19;71600.94;;;-147.87;100.00
75036;BME280;64247;51.540;5.854;2023-05-25T04:12:20;71600.94;;;-147.87;100.00
75036;BME280;64247;51.540;5.854;2023-05-25T04:14:21;71600.94;;;-147.87;100.00
75036;BME280;64247;51.540;5.854;2023-05-25T04:16:22;71600.94;;;-147.87;100.00
75036;BME280;64247;51.540;5.854;2023-05-25T04:18:25;71600.94;;;-147.87;100.00
75036;BME280;64247;51.540;5.854;2023-05-25T04:20:26;71600.94;;;-147.87;100.00
75036;BME280;64247;51.540;5.854;2023-05-25T04:22:27;71600.94;;;-147.87;100.00
75036;BME280;64247;51.540;5.854;2023-05-25T04:24:28;71600.94;;;-147.87;100.00
75036;BME280;64247;51.540;5.854;2023-05-25T04:26:29;71600.94;;;-147.87;100.00
75036;BME280;64247;51.540;5.854;2023-05-25T04:28:31;71600.94;;;-147.87;100.00
75036;BME280;64247;51.540;5.854;2023-05-25T04:30:43;71600.94;;;-147.87;100.00
75036;BME280;64247;51.540;5.854;2023-05-25T04:33:02;71600.94;;;-147.87;100.00
75036;BME280;64247;51.540;5.854;2023-05-25T04:35:08;71600.94;;;-147.87;100.00
75036;BME280;64247;51.540;5.854;2023-05-25T04:37:15;71600.94;;;-147.87;100.00
75036;BME280;64247;51.540;5.854;2023-05-25T04:39:16;71600.94;;;-147.87;100.00
75036;BME280;64247;51.540;5.854;2023-05-25T04:41:23;71600.94;;;-147.87;100.00
75036;BME280;64247;51.540;5.854;2023-05-25T04:43:28;71600.94;;;-147.87;100.00
75036;BME280;64247;51.540;5.854;2023-05-25T04:45:29;71600.94;;;-147.87;100.00
75036;BME280;64247;51.540;5.854;2023-05-25T04:47:32;71600.94;;;-147.87;100.00
75036;BME280;64247;51.540;5.854;2023-05-25T04:49:34;71600.94;;;-147.87;100.00
75036;BME280;64247;51.540;5.854;2023-05-25T04:51:35;71600.94;;;-147.87;100.00
75036;BME280;64247;51.540;5.854;2023-05-25T04:53:36;71600.94;;;-147.87;100.00
75036;BME280;64247;51.540;5.854;2023-05-25T04:55:38;71600.94;;;-147.87;100.00
75036;BME280;64247;51.540;5.854;2023-05-25T04:57:39;71600.94;;;-147.87;100.00
75036;BME280;64247;51.540;5.854;2023-05-25T04:59:40;71600.94;;;-147.87;100.00
75036;BME280;64247;51.540;5.854;2023-05-25T05:01:41;71600.94;;;-147.87;100.00
75036;BME280;64247;51.540;5.854;2023-05-25T05:03:46;71600.94;;;-147.87;100.00
75036;BME280;64247;51.540;5.854;2023-05-25T05:05:47;71600.94;;;-147.87;100.00
75036;BME280;64247;51.540;5.854;2023-05-25T05:07:55;71600.94;;;-147.87;100.00
75036;BME280;64247;51.540;5.854;2023-05-25T05:09:57;71600.94;;;-147.87;100.00
75036;BME280;64247;51.540;5.854;2023-05-25T05:11:58;71600.94;;;-147.87;100.00
75036;BME280;64247;51.540;5.854;2023-05-25T05:14:01;71600.94;;;-147.87;100.00
75036;BME280;64247;51.540;5.854;2023-05-25T05:16:03;71600.94;;;-147.87;100.00
75036;BME280;64247;51.540;5.854;2023-05-25T05:18:04;71600.94;;;-147.87;100.00
75036;BME280;64247;51.540;5.854;2023-05-25T05:20:06;71600.94;;;-147.87;100.00
75036;BME280;64247;51.540;5.854;2023-05-25T05:22:07;71600.94;;;-147.87;100.00
75036;BME280;64247;51.540;5.854;2023-05-25T05:24:10;71600.94;;;-147.87;100.00
75036;BME280;64247;51.540;5.854;2023-05-25T05:26:10;71600.94;;;-147.87;100.00
75036;BME280;64247;51.540;5.854;2023-05-25T05:28:15;71600.94;;;-147.87;100.00
75036;BME280;64247;51.540;5.854;2023-05-25T05:30:15;71600.94;;;-147.87;100.00
75036;BME280;64247;51.540;5.854;2023-05-25T05:32:16;71600.94;;;-147.87;100.00
75036;BME280;64247;51.540;5.854;2023-05-25T05:34:17;71600.94;;;-147.87;100.00
75036;BME280;64247;51.540;5.854;2023-05-25T05:36:18;71600.94;;;-147.87;100.00
75036;BME280;64247;51.540;5.854;2023-05-25T05:38:19;71600.94;;;-147.87;100.00
75036;BME280;64247;51.540;5.854;2023-05-25T05:40:21;71600.94;;;-147.87;100.00
75036;BME280;64247;51.540;5.854;2023-05-25T05:42:22;71600.94;;;-147.87;100.00
75036;BME280;64247;51.540;5.854;2023-05-25T05:44:23;71600.94;;;-147.87;100.00
75036;BME280;64247;51.540;5.854;2023-05-25T05:46:24;71600.94;;;-147.87;100.00
75036;BME280;64247;51.540;5.854;2023-05-25T05:48:24;71600.94;;;-147.87;100.00
75036;BME280;64247;51.540;5.854;2023-05-25T05:50:25;71600.94;;;-147.87;100.00
75036;BME280;64247;51.540;5.854;2023-05-25T05:52:26;71600.94;;;-147.87;100.00
75036;BME280;64247;51.540;5.854;2023-05-25T05:54:27;71600.94;;;-147.87;100.00
75036;BME280;64247;51.540;5.854;2023-05-25T05:56:28;71600.94;;;-147.87;100.00
75036;BME280;64247;51.540;5.854;2023-05-25T05:58:29;71600.94;;;-147.87;100.00
75036;BME280;64247;51.540;5.854;2023-05-25T06:00:32;71600.94;;;-147.87;100.00
75036;BME280;64247;51.540;5.854;2023-05-25T06:02:33;71600.94;;;-147.87;100.00
75036;BME280;64247;51.540;5.854;2023-05-25T06:04:34;71600.94;;;-147.87;100.00
75036;BME280;64247;51.540;5.854;2023-05-25T06:06:35;71600.94;;;-147.87;100.00
75036;BME280;64247;51.540;5.854;2023-05-25T06:08:37;71600.94;;;-147.87;100.00
75036;BME280;64247;51.540;5.854;2023-05-25T06:10:38;71600.94;;;-147.87;100.00
75036;BME280;64247;51.540;5.854;2023-05-25T06:12:39;71600.94;;;-147.87;100.00
75036;BME280;64247;51.540;5.854;2023-05-25T06:14:40;71600.94;;;-147.87;100.00
75036;BME280;64247;51.540;5.854;2023-05-25T06:16:42;71600.94;;;-147.87;100.00
75036;BME280;64247;51.540;5.854;2023-05-25T06:18:43;71600.94;;;-147.87;100.00
75036;BME280;64247;51.540;5.854;2023-05-25T06:20:45;71600.94;;;-147.87;100.00
75036;BME280;64247;51.540;5.854;2023-05-25T06:22:45;71600.94;;;-147.87;100.00
75036;BME280;64247;51.540;5.854;2023-05-25T06:24:46;71600.94;;;-147.87;100.00
75036;BME280;64247;51.540;5.854;2023-05-25T06:26:47;71600.94;;;-147.87;100.00
75036;BME280;64247;51.540;5.854;2023-05-25T06:28:48;71600.94;;;-147.87;100.00
75036;BME280;64247;51.540;5.854;2023-05-25T06:30:49;71600.94;;;-147.87;100.00
75036;BME280;64247;51.540;5.854;2023-05-25T06:32:50;71600.94;;;-147.87;100.00
75036;BME280;64247;51.540;5.854;2023-05-25T06:34:51;71600.94;;;-147.87;100.00
75036;BME280;64247;51.540;5.854;2023-05-25T06:36:53;71600.94;;;-147.87;100.00
75036;BME280;64247;51.540;5.854;2023-05-25T06:38:54;71600.94;;;-147.87;100.00
75036;BME280;64247;51.540;5.854;2023-05-25T06:40:55;71600.94;;;-147.87;100.00
75036;BME280;64247;51.540;5.854;2023-05-25T06:42:56;71600.94;;;-147.87;100.00
75036;BME280;64247;51.540;5.854;2023-05-25T06:45:15;71600.94;;;-147.87;100.00
75036;BME280;64247;51.540;5.854;2023-05-25T06:47:17;71600.94;;;-147.87;100.00
75036;BME280;64247;51.540;5.854;2023-05-25T06:49:17;71600.94;;;-147.87;100.00
75036;BME280;64247;51.540;5.854;2023-05-25T06:51:19;71600.94;;;-147.87;100.00
75036;BME280;64247;51.540;5.854;2023-05-25T06:53:20;71600.94;;;-147.87;100.00
75036;BME280;64247;51.540;5.854;2023-05-25T06:55:21;71600.94;;;-147.87;100.00
75036;BME280;64247;51.540;5.854;2023-05-25T06:57:24;71600.94;;;-147.87;100.00
75036;BME280;64247;51.540;5.854;2023-05-25T06:59:25;71600.94;;;-147.87;100.00
75036;BME280;64247;51.540;5.854;2023-05-25T07:01:26;71600.94;;;-147.87;100.00
75036;BME280;64247;51.540;5.854;2023-05-25T07:03:26;71600.94;;;-147.87;100.00
75036;BME280;64247;51.540;5.854;2023-05-25T07:05:27;71600.94;;;-147.87;100.00
75036;BME280;64247;51.540;5.854;2023-05-25T07:07:28;71600.94;;;-147.87;100.00
75036;BME280;64247;51.540;5.854;2023-05-25T07:09:29;71600.94;;;-147.87;100.00
75036;BME280;64247;51.540;5.854;2023-05-25T07:11:29;71600.94;;;-147.87;100.00
75036;BME280;64247;51.540;5.854;2023-05-25T07:13:30;71600.94;;;-147.87;100.00
75036;BME280;64247;51.540;5.854;2023-05-25T07:15:31;71600.94;;;-147.87;100.00
75036;BME280;64247;51.540;5.854;2023-05-25T07:17:32;71600.94;;;-147.87;100.00
75036;BME280;64247;51.540;5.854;2023-05-25T07:19:33;71600.94;;;-147.87;100.00
75036;BME280;64247;51.540;5.854;2023-05-25T07:21:33;71600.94;;;-147.87;100.00
75036;BME280;64247;51.540;5.854;2023-05-25T07:23:36;71600.94;;;-147.87;100.00
75036;BME280;64247;51.540;5.854;2023-05-25T07:25:38;71600.94;;;-147.87;100.00
75036;BME280;64247;51.540;5.854;2023-05-25T07:27:40;71600.94;;;-147.87;100.00
75036;BME280;64247;51.540;5.854;2023-05-25T07:29:42;71600.94;;;-147.87;100.00
75036;BME280;64247;51.540;5.854;2023-05-25T07:31:43;71600.94;;;-147.87;100.00
75036;BME280;64247;51.540;5.854;2023-05-25T07:33:43;71600.94;;;-147.87;100.00
75036;BME280;64247;51.540;5.854;2023-05-25T07:35:44;71600.94;;;-147.87;100.00
75036;BME280;64247;51.540;5.854;2023-05-25T07:37:45;71600.94;;;-147.87;100.00
75036;BME280;64247;51.540;5.854;2023-05-25T07:39:46;71600.94;;;-147.87;100.00
75036;BME280;64247;51.540;5.854;2023-05-25T07:41:46;71600.94;;;-147.87;100.00
75036;BME280;64247;51.540;5.854;2023-05-25T07:43:47;71600.94;;;-147.87;100.00
75036;BME280;64247;51.540;5.854;2023-05-25T07:45:48;71600.94;;;-147.87;100.00
75036;BME280;64247;51.540;5.854;2023-05-25T07:47:49;71600.94;;;-147.87;100.00
75036;BME280;64247;51.540;5.854;2023-05-25T07:49:49;102440.09;;;18.04;65.78
75036;BME280;64247;51.540;5.854;2023-05-25T07:51:50;102441.63;;;18.18;63.78
75036;BME280;64247;51.540;5.854;2023-05-25T07:53:51;102448.81;;;18.23;63.67
75036;BME280;64247;51.540;5.854;2023-05-25T07:55:56;102446.16;;;18.26;64.77
75036;BME280;64247;51.540;5.854;2023-05-25T07:57:57;102458.38;;;18.45;63.33
75036;BME280;64247;51.540;5.854;2023-05-25T07:59:58;102455.47;;;18.54;61.44
75036;BME280;64247;51.540;5.854;2023-05-25T08:01:59;102450.94;;;18.45;62.72
75036;BME280;64247;51.540;5.854;2023-05-25T08:04:00;102449.06;;;18.49;62.71
75036;BME280;64247;51.540;5.854;2023-05-25T08:06:01;102453.50;;;18.54;63.00
75036;BME280;64247;51.540;5.854;2023-05-25T08:08:02;102462.66;;;18.26;61.73
75036;BME280;64247;51.540;5.854;2023-05-25T08:10:03;102447.75;;;17.95;62.72
75036;BME280;64247;51.540;5.854;2023-05-25T08:12:04;102451.66;;;17.82;62.10
75036;BME280;64247;51.540;5.854;2023-05-25T08:14:05;102442.91;;;17.76;62.78
75036;BME280;64247;51.540;5.854;2023-05-25T08:16:06;102457.50;;;17.80;62.19
75036;BME280;64247;51.540;5.854;2023-05-25T08:18:08;102466.22;;;17.82;62.59
75036;BME280;64247;51.540;5.854;2023-05-25T08:20:09;102460.97;;;17.77;62.81
75036;BME280;64247;51.540;5.854;2023-05-25T08:22:10;102454.06;;;17.83;62.84
75036;BME280;64247;51.540;5.854;2023-05-25T08:24:11;102455.66;;;17.84;62.46
75036;BME280;64247;51.540;5.854;2023-05-25T08:26:12;102463.53;;;18.14;62.61
75036;BME280;64247;51.540;5.854;2023-05-25T08:28:13;102460.88;;;18.50;61.44
75036;BME280;64247;51.540;5.854;2023-05-25T08:30:14;102471.28;;;18.92;60.92
75036;BME280;64247;51.540;5.854;2023-05-25T08:32:15;102475.69;;;19.33;59.39
75036;BME280;64247;51.540;5.854;2023-05-25T08:34:16;102475.56;;;19.65;59.00
75036;BME280;64247;51.540;5.854;2023-05-25T08:36:18;102472.28;;;19.59;57.74
75036;BME280;64247;51.540;5.854;2023-05-25T08:38:19;102486.13;;;19.43;56.94
75036;BME280;64247;51.540;5.854;2023-05-25T08:40:26;102474.44;;;19.10;56.75
75036;BME280;64247;51.540;5.854;2023-05-25T08:42:29;102474.22;;;18.83;57.20
75036;BME280;64247;51.540;5.854;2023-05-25T08:44:30;102472.91;;;18.61;57.15
75036;BME280;64247;51.540;5.854;2023-05-25T08:46:31;102471.88;;;18.50;58.61
75036;BME280;64247;51.540;5.854;2023-05-25T08:48:33;102469.34;;;18.77;59.21
75036;BME280;64247;51.540;5.854;2023-05-25T08:50:37;102476.88;;;18.96;59.09
75036;BME280;64247;51.540;5.854;2023-05-25T08:52:39;102470.31;;;19.20;57.59
75036;BME280;64247;51.540;5.854;2023-05-25T08:54:49;102476.19;;;19.58;57.44
75036;BME280;64247;51.540;5.854;2023-05-25T08:57:12;102481.53;;;19.70;55.87
75036;BME280;64247;51.540;5.854;2023-05-25T08:59:40;102476.03;;;19.70;56.95
75036;BME280;64247;51.540;5.854;2023-05-25T09:04:37;102481.34;;;20.22;54.56
75036;BME280;64247;51.540;5.854;2023-05-25T09:06:39;102477.41;;;20.46;52.13
75036;BME280;64247;51.540;5.854;2023-05-25T09:08:41;102479.59;;;20.60;52.63
75036;BME280;64247;51.540;5.854;2023-05-25T09:10:43;102472.91;;;20.88;53.85
75036;BME280;64247;51.540;5.854;2023-05-25T09:12:45;102476.72;;;21.07;53.62
75036;BME280;64247;51.540;5.854;2023-05-25T09:14:47;102481.88;;;21.08;52.43
75036;BME280;64247;51.540;5.854;2023-05-25T09:16:49;102479.41;;;20.99;51.49
75036;BME280;64247;51.540;5.854;2023-05-25T09:18:50;102476.47;;;20.88;51.73
75036;BME280;64247;51.540;5.854;2023-05-25T09:20:51;102479.56;;;20.83;52.34
75036;BME280;64247;51.540;5.854;2023-05-25T09:22:52;102484.34;;;20.63;52.11
75036;BME280;64247;51.540;5.854;2023-05-25T09:24:53;102483.53;;;20.36;52.93
75036;BME280;64247;51.540;5.854;2023-05-25T09:26:54;102489.06;;;19.93;54.45
75036;BME280;64247;51.540;5.854;2023-05-25T09:28:55;102489.91;;;19.35;55.91
75036;BME280;64247;51.540;5.854;2023-05-25T09:30:56;102490.38;;;18.85;57.62
75036;BME280;64247;51.540;5.854;2023-05-25T09:33:08;102484.47;;;18.35;59.24
75036;BME280;64247;51.540;5.854;2023-05-25T09:35:11;102491.22;;;17.93;60.28
75036;BME280;64247;51.540;5.854;2023-05-25T09:37:15;102486.53;;;17.65;61.01
75036;BME280;64247;51.540;5.854;2023-05-25T09:39:18;102501.13;;;17.41;62.43
75036;BME280;64247;51.540;5.854;2023-05-25T09:41:19;102495.47;;;17.21;62.82
75036;BME280;64247;51.540;5.854;2023-05-25T09:43:21;102496.97;;;17.06;63.97
75036;BME280;64247;51.540;5.854;2023-05-25T09:45:22;102494.47;;;17.01;63.99
75036;BME280;64247;51.540;5.854;2023-05-25T09:47:23;102496.44;;;17.01;64.94
75036;BME280;64247;51.540;5.854;2023-05-25T09:49:25;102499.84;;;17.10;65.63
75036;BME280;64247;51.540;5.854;2023-05-25T09:51:26;102493.06;;;17.32;64.82
75036;BME280;64247;51.540;5.854;2023-05-25T09:53:28;102500.91;;;17.46;64.87
75036;BME280;64247;51.540;5.854;2023-05-25T09:55:31;102502.81;;;17.58;62.96
75036;BME280;64247;51.540;5.854;2023-05-25T09:57:34;102504.16;;;17.64;62.88
75036;BME280;64247;51.540;5.854;2023-05-25T09:59:35;102492.13;;;17.69;63.08
75036;BME280;64247;51.540;5.854;2023-05-25T10:01:37;102501.09;;;17.82;62.36
75036;BME280;64247;51.540;5.854;2023-05-25T10:03:44;102506.47;;;17.91;61.49
75036;BME280;64247;51.540;5.854;2023-05-25T10:05:51;102496.34;;;17.95;60.73
75036;BME280;64247;51.540;5.854;2023-05-25T10:07:53;102511.59;;;17.92;61.27
75036;BME280;64247;51.540;5.854;2023-05-25T10:09:57;102507.97;;;17.88;61.62
75036;BME280;64247;51.540;5.854;2023-05-25T10:12:01;102512.53;;;17.96;62.24
75036;BME280;64247;51.540;5.854;2023-05-25T10:14:05;102504.03;;;18.17;60.59
75036;BME280;64247;51.540;5.854;2023-05-25T10:16:08;102514.69;;;18.35;60.56
75036;BME280;64247;51.540;5.854;2023-05-25T10:18:19;102508.84;;;18.69;59.93
75036;BME280;64247;51.540;5.854;2023-05-25T10:20:25;102518.41;;;18.91;59.92
75036;BME280;64247;51.540;5.854;2023-05-25T10:22:50;102510.94;;;19.07;58.06
75036;BME280;64247;51.540;5.854;2023-05-25T10:25:03;102509.19;;;18.99;58.13
75036;BME280;64247;51.540;5.854;2023-05-25T10:27:14;102508.47;;;18.86;57.94
75036;BME280;64247;51.540;5.854;2023-05-25T10:29:19;102505.31;;;18.68;58.52
75036;BME280;64247;51.540;5.854;2023-05-25T10:31:21;102508.22;;;18.59;58.95
75036;BME280;64247;51.540;5.854;2023-05-25T10:33:27;102512.13;;;18.58;59.33